Time;durP1;ratioP1;P1;durP2;ratioP2;P2;SDS_P1;SDS_P2;PMS_P1;PMS_P2;Temp;Humidity;BMP_temperature;BMP_pressure;BME280_temperature;BME280_humidity;BME280_pressure;Samples;Min_cycle;Max_cycle;Signal;HPM_P1;HPM_P2
2022/01/14 00:00:05;;;;;;;58.88;27.65;;;;;;;;;;5084237;28;20031;-53
2022/01/14 00:02:31;;;;;;;60.85;28.63;;;;;;;;;;5084618;28;20419;-53
2022/01/14 00:04:57;;;;;;;63.25;31.13;;;;;;;;;;5075645;28;20035;-54
2022/01/14 00:07:25;;;;;;;64.50;30.48;;;;;;;;;;5104682;28;20395;-53
2022/01/14 00:09:54;;;;;;;58.42;28.80;;;;;;;;;;5104417;28;20028;-52
2022/01/14 00:12:26;;;;;;;60.97;28.33;;;;;;;;;;5098783;28;20093;-53
2022/01/14 00:15:23;;;;;;;55.60;26.17;;;;;;;;;;5084772;28;20020;-51
2022/01/14 00:17:47;;;;;;;56.22;26.58;;;;;;;;;;5084783;28;20047;-52
2022/01/14 00:20:14;;;;;;;55.33;25.30;;;;;;;;;;5097301;28;20164;-51
2022/01/14 00:22:40;;;;;;;51.03;24.45;;;;;;;;;;5085743;28;20020;-53
2022/01/14 00:33:09;;;;;;;53.50;25.30;;;;;;;;;;5083911;28;20039;-50
2022/01/14 00:35:42;;;;;;;57.78;28.00;;;;;;;;;;5084434;28;20077;-53
2022/01/14 00:38:08;;;;;;;58.38;27.30;;;;;;;;;;5083253;28;20024;-53
2022/01/14 00:40:35;;;;;;;57.28;27.20;;;;;;;;;;5084158;28;20035;-52
2022/01/14 00:43:01;;;;;;;58.22;27.13;;;;;;;;;;5083485;28;20021;-53
2022/01/14 00:45:27;;;;;;;62.95;28.42;;;;;;;;;;5083552;28;20036;-51
2022/01/14 00:47:54;;;;;;;53.88;26.80;;;;;;;;;;5084020;28;20187;-52
2022/01/14 00:50:20;;;;;;;58.38;27.85;;;;;;;;;;5094984;28;20032;-51
2022/01/14 00:52:47;;;;;;;57.00;26.58;;;;;;;;;;5104933;28;20092;-52
2022/01/14 00:55:17;;;;;;;52.45;25.92;;;;;;;;;;5104637;28;20104;-56
2022/01/14 01:00:22;;;;;;;44.60;22.88;;;;;;;;;;5083458;28;20032;-57
2022/01/14 01:02:48;;;;;;;45.90;23.10;;;;;;;;;;5066248;28;20028;-56
2022/01/14 01:05:15;;;;;;;44.40;22.60;;;;;;;;;;5096399;28;20043;-56
2022/01/14 01:07:42;;;;;;;41.05;20.98;;;;;;;;;;5100820;28;20035;-55
2022/01/14 01:10:10;;;;;;;41.78;20.80;;;;;;;;;;5101992;28;20275;-56
2022/01/14 01:12:53;;;;;;;41.30;20.58;;;;;;;;;;5098506;28;20523;-57
2022/01/14 01:15:20;;;;;;;42.97;20.80;;;;;;;;;;5103540;28;20522;-56
2022/01/14 01:17:49;;;;;;;40.47;20.33;;;;;;;;;;5090833;28;20056;-55
2022/01/14 01:20:18;;;;;;;40.47;20.25;;;;;;;;;;5088701;28;20490;-56
2022/01/14 01:22:45;;;;;;;42.05;20.55;;;;;;;;;;5104571;28;20031;-54
2022/01/14 01:25:14;;;;;;;40.70;19.58;;;;;;;;;;5101180;28;20027;-56
2022/01/14 01:27:42;;;;;;;39.47;19.50;;;;;;;;;;5095153;28;20024;-53
2022/01/14 01:33:03;;;;;;;43.45;20.60;;;;;;;;;;5059443;28;20032;-55
2022/01/14 01:35:30;;;;;;;39.85;19.65;;;;;;;;;;5103559;28;20026;-56
2022/01/14 01:37:57;;;;;;;41.90;19.88;;;;;;;;;;5107962;28;20028;-57
2022/01/14 01:40:25;;;;;;;37.67;19.73;;;;;;;;;;5107577;28;20032;-57
2022/01/14 01:42:51;;;;;;;40.65;20.40;;;;;;;;;;5079179;28;20032;-55
2022/01/14 01:45:22;;;;;;;37.72;18.80;;;;;;;;;;5102273;28;20709;-56
2022/01/14 01:47:50;;;;;;;35.72;18.63;;;;;;;;;;5106602;28;20378;-57
2022/01/14 01:50:18;;;;;;;40.38;20.92;;;;;;;;;;5108170;28;20094;-57
2022/01/14 01:52:45;;;;;;;38.78;19.55;;;;;;;;;;5107970;28;20065;-56
2022/01/14 01:55:13;;;;;;;37.88;19.58;;;;;;;;;;5103791;28;20383;-57
2022/01/14 01:57:42;;;;;;;38.35;18.75;;;;;;;;;;5098609;28;20119;-56
2022/01/14 02:00:09;;;;;;;39.90;20.08;;;;;;;;;;5086349;28;20047;-54
2022/01/14 02:02:36;;;;;;;34.42;18.08;;;;;;;;;;5087002;28;20024;-57
2022/01/14 02:05:04;;;;;;;38.53;19.30;;;;;;;;;;5078803;28;20027;-57
2022/01/14 02:07:31;;;;;;;38.08;19.30;;;;;;;;;;5106969;28;20050;-57
2022/01/14 02:09:59;;;;;;;38.03;19.20;;;;;;;;;;5106779;28;20031;-56
2022/01/14 02:12:34;;;;;;;36.47;19.20;;;;;;;;;;5100628;28;20483;-54
2022/01/14 02:22:56;;;;;;;40.58;20.45;;;;;;;;;;5107047;28;20026;-54
2022/01/14 02:25:30;;;;;;;43.42;20.67;;;;;;;;;;5104280;28;20054;-54
2022/01/14 02:28:13;;;;;;;42.03;20.98;;;;;;;;;;5095887;28;20035;-54
2022/01/14 02:30:40;;;;;;;42.78;20.23;;;;;;;;;;5085578;28;20115;-54
2022/01/14 02:33:07;;;;;;;41.63;20.00;;;;;;;;;;5102123;28;20022;-56
2022/01/14 02:35:33;;;;;;;38.75;19.08;;;;;;;;;;5106989;28;20799;-56
2022/01/14 02:37:59;;;;;;;43.00;20.10;;;;;;;;;;5109208;28;20427;-56
2022/01/14 02:40:26;;;;;;;39.55;19.23;;;;;;;;;;5108403;28;20077;-56
2022/01/14 02:42:53;;;;;;;39.58;18.88;;;;;;;;;;5098698;28;20414;-56
2022/01/14 02:45:22;;;;;;;44.35;21.05;;;;;;;;;;5085598;28;20543;-56
2022/01/14 02:47:49;;;;;;;42.10;19.75;;;;;;;;;;5084815;28;20032;-55
2022/01/14 02:50:20;;;;;;;40.78;20.30;;;;;;;;;;5087334;28;20077;-56
2022/01/14 02:55:21;;;;;;;42.33;20.30;;;;;;;;;;5094866;28;20042;-57
2022/01/14 02:57:50;;;;;;;37.38;19.45;;;;;;;;;;5073411;28;20254;-56
2022/01/14 03:00:17;;;;;;;41.50;20.02;;;;;;;;;;5086157;28;20038;-56
2022/01/14 03:02:45;;;;;;;38.35;18.95;;;;;;;;;;5085979;28;20036;-56
2022/01/14 03:05:12;;;;;;;40.88;19.75;;;;;;;;;;5085254;28;20012;-56
2022/01/14 03:07:41;;;;;;;43.40;20.77;;;;;;;;;;5086163;28;20040;-57
2022/01/14 03:10:09;;;;;;;40.95;19.63;;;;;;;;;;5085657;28;20074;-56
2022/01/14 03:12:35;;;;;;;40.28;19.63;;;;;;;;;;5085541;28;20024;-56
2022/01/14 03:15:01;;;;;;;42.08;19.83;;;;;;;;;;5090203;28;20023;-57
2022/01/14 03:17:29;;;;;;;43.03;20.98;;;;;;;;;;5107202;28;20028;-56
2022/01/14 03:19:57;;;;;;;44.35;21.00;;;;;;;;;;5106651;28;20027;-56
2022/01/14 03:22:31;;;;;;;40.75;19.60;;;;;;;;;;5105977;28;20035;-55
2022/01/14 03:27:43;;;;;;;44.42;20.88;;;;;;;;;;5073360;28;20039;-55
2022/01/14 03:30:09;;;;;;;42.20;21.30;;;;;;;;;;5089403;28;20075;-56
2022/01/14 03:32:35;;;;;;;42.70;21.20;;;;;;;;;;5106126;28;20412;-56
2022/01/14 03:35:01;;;;;;;37.25;18.85;;;;;;;;;;5104912;28;20027;-56
2022/01/14 03:37:27;;;;;;;38.58;19.92;;;;;;;;;;5106524;28;20566;-55
2022/01/14 03:39:53;;;;;;;37.63;18.05;;;;;;;;;;5105895;28;20119;-56
2022/01/14 03:42:19;;;;;;;38.95;18.85;;;;;;;;;;5100090;28;20028;-56
2022/01/14 03:44:45;;;;;;;37.08;18.55;;;;;;;;;;5085574;28;20511;-56
2022/01/14 03:47:11;;;;;;;38.42;19.13;;;;;;;;;;5103350;28;20032;-56
2022/01/14 03:49:37;;;;;;;35.20;18.17;;;;;;;;;;5105995;28;20019;-56
2022/01/14 03:52:03;;;;;;;34.95;17.05;;;;;;;;;;5104141;28;20028;-57
2022/01/14 03:54:30;;;;;;;35.17;17.48;;;;;;;;;;5106203;28;20078;-57
2022/01/14 03:56:56;;;;;;;33.65;18.10;;;;;;;;;;5101522;28;20038;-56
2022/01/14 03:59:22;;;;;;;35.25;17.55;;;;;;;;;;5098906;28;20531;-54
2022/01/14 04:01:48;;;;;;;36.30;17.67;;;;;;;;;;5105748;28;20089;-56
2022/01/14 04:04:15;;;;;;;34.85;17.83;;;;;;;;;;5105340;28;20106;-56
2022/01/14 04:06:42;;;;;;;35.95;17.75;;;;;;;;;;5102760;28;20077;-56
2022/01/14 04:09:08;;;;;;;32.28;16.15;;;;;;;;;;5104772;28;20130;-56
2022/01/14 04:11:35;;;;;;;31.00;15.88;;;;;;;;;;5103708;28;20414;-56
2022/01/14 04:16:48;;;;;;;44.60;19.17;;;;;;;;;;5090396;28;20517;-57
2022/01/14 04:19:14;;;;;;;41.33;18.20;;;;;;;;;;5104851;28;20442;-55
2022/01/14 04:21:40;;;;;;;41.58;18.38;;;;;;;;;;5104979;28;20632;-55
2022/01/14 04:24:06;;;;;;;38.78;17.33;;;;;;;;;;5105103;28;20020;-56
2022/01/14 04:26:32;;;;;;;37.00;17.55;;;;;;;;;;5100497;28;20028;-57
2022/01/14 04:28:58;;;;;;;33.13;16.83;;;;;;;;;;5086223;28;20095;-56
2022/01/14 04:31:24;;;;;;;38.22;18.92;;;;;;;;;;5084599;28;20028;-56
2022/01/14 04:33:50;;;;;;;40.88;19.73;;;;;;;;;;5066609;28;20320;-56
2022/01/14 04:36:16;;;;;;;42.42;20.02;;;;;;;;;;5087991;28;20055;-57
2022/01/14 04:38:42;;;;;;;40.33;19.98;;;;;;;;;;5105263;28;20038;-54
2022/01/14 04:41:09;;;;;;;41.42;20.00;;;;;;;;;;5104913;28;20030;-56
2022/01/14 04:43:35;;;;;;;41.53;20.27;;;;;;;;;;5088697;28;20024;-56
2022/01/14 04:48:29;;;;;;;40.08;19.25;;;;;;;;;;5085081;28;20024;-56
2022/01/14 04:50:55;;;;;;;35.65;18.08;;;;;;;;;;5084359;28;20024;-56
2022/01/14 04:53:22;;;;;;;35.20;17.92;;;;;;;;;;5086495;28;20993;-57
2022/01/14 04:55:49;;;;;;;37.97;18.10;;;;;;;;;;5105222;28;20140;-56
2022/01/14 04:58:15;;;;;;;35.13;17.55;;;;;;;;;;5088640;28;20085;-56
2022/01/14 05:00:41;;;;;;;40.25;20.27;;;;;;;;;;5084748;28;20500;-55
2022/01/14 05:03:07;;;;;;;38.53;18.92;;;;;;;;;;5083096;28;20021;-56
2022/01/14 05:05:36;;;;;;;39.20;20.00;;;;;;;;;;5103258;28;20402;-57
2022/01/14 05:08:08;;;;;;;42.33;19.88;;;;;;;;;;5104986;28;20030;-55
2022/01/14 05:10:46;;;;;;;37.85;19.52;;;;;;;;;;5107572;28;20074;-55
2022/01/14 05:13:12;;;;;;;41.60;20.58;;;;;;;;;;5100832;28;20055;-56
2022/01/14 05:15:38;;;;;;;37.25;18.88;;;;;;;;;;5107914;28;20490;-56
2022/01/14 05:18:05;;;;;;;38.00;19.00;;;;;;;;;;5109283;28;20059;-56
2022/01/14 05:20:31;;;;;;;41.10;19.65;;;;;;;;;;5108825;28;20073;-55
2022/01/14 05:22:57;;;;;;;37.90;20.38;;;;;;;;;;5108753;28;20030;-55
2022/01/14 05:25:23;;;;;;;43.85;21.33;;;;;;;;;;5088767;28;20111;-56
2022/01/14 05:27:49;;;;;;;41.92;20.77;;;;;;;;;;5087871;28;20028;-56
2022/01/14 05:30:16;;;;;;;39.97;20.52;;;;;;;;;;5087841;28;20035;-56
2022/01/14 05:32:47;;;;;;;42.17;19.80;;;;;;;;;;5086288;28;20028;-55
2022/01/14 05:35:14;;;;;;;40.08;19.40;;;;;;;;;;5085415;28;20466;-56
2022/01/14 05:37:40;;;;;;;40.47;20.08;;;;;;;;;;5088178;28;20024;-57
2022/01/14 05:40:07;;;;;;;37.70;19.73;;;;;;;;;;5087603;28;20059;-56
2022/01/14 05:42:34;;;;;;;41.65;20.17;;;;;;;;;;5088114;28;20153;-55
2022/01/14 05:45:00;;;;;;;39.67;18.70;;;;;;;;;;5093920;28;20516;-55
2022/01/14 05:47:26;;;;;;;40.33;20.45;;;;;;;;;;5108024;28;20055;-55
2022/01/14 05:49:52;;;;;;;40.88;19.80;;;;;;;;;;5107792;28;20062;-56
2022/01/14 05:52:19;;;;;;;40.58;20.17;;;;;;;;;;5100259;28;20442;-56
2022/01/14 05:54:46;;;;;;;39.28;20.20;;;;;;;;;;5102422;28;20425;-56
2022/01/14 05:57:13;;;;;;;44.50;22.65;;;;;;;;;;5103019;28;20043;-56
2022/01/14 05:59:39;;;;;;;45.70;22.45;;;;;;;;;;5087591;28;20036;-57
2022/01/14 06:02:06;;;;;;;48.22;24.33;;;;;;;;;;5086099;28;20166;-57
2022/01/14 06:04:32;;;;;;;46.25;22.95;;;;;;;;;;5088113;28;20092;-56
2022/01/14 06:06:58;;;;;;;46.05;23.73;;;;;;;;;;5087419;28;20107;-56
2022/01/14 06:09:23;;;;;;;44.58;22.25;;;;;;;;;;5068865;28;20127;-56
2022/01/14 06:11:50;;;;;;;42.88;22.33;;;;;;;;;;5092656;28;20567;-55
2022/01/14 06:14:16;;;;;;;43.95;21.55;;;;;;;;;;5087032;28;20085;-55
2022/01/14 06:16:43;;;;;;;43.35;21.50;;;;;;;;;;5087266;28;20035;-55
2022/01/14 06:19:09;;;;;;;48.70;23.75;;;;;;;;;;5087235;28;20039;-56
2022/01/14 06:21:35;;;;;;;47.03;21.23;;;;;;;;;;5086263;28;20570;-55
2022/01/14 06:24:01;;;;;;;47.45;21.75;;;;;;;;;;5104538;28;20032;-56
2022/01/14 06:26:27;;;;;;;41.92;20.70;;;;;;;;;;5107318;28;20024;-55
2022/01/14 06:28:53;;;;;;;41.92;19.58;;;;;;;;;;5088788;28;20024;-56
2022/01/14 06:31:20;;;;;;;39.63;19.40;;;;;;;;;;5085025;28;20072;-56
2022/01/14 06:33:46;;;;;;;44.95;21.45;;;;;;;;;;5087306;28;20020;-57
2022/01/14 06:36:13;;;;;;;44.33;21.25;;;;;;;;;;5086571;28;20099;-56
2022/01/14 06:38:40;;;;;;;45.13;21.45;;;;;;;;;;5087010;28;20032;-56
2022/01/14 06:41:07;;;;;;;48.97;23.30;;;;;;;;;;5086607;28;20024;-56
2022/01/14 06:43:33;;;;;;;45.33;21.73;;;;;;;;;;5085809;28;20467;-55
2022/01/14 06:45:59;;;;;;;47.50;23.38;;;;;;;;;;5107236;28;20390;-55
2022/01/14 06:48:25;;;;;;;43.50;22.35;;;;;;;;;;5106951;28;20031;-55
2022/01/14 06:50:52;;;;;;;48.53;24.90;;;;;;;;;;5106840;28;20055;-55
2022/01/14 06:53:18;;;;;;;47.40;24.02;;;;;;;;;;5106930;28;20059;-56
2022/01/14 06:55:44;;;;;;;53.90;25.55;;;;;;;;;;5086173;28;20055;-56
2022/01/14 06:58:10;;;;;;;50.72;25.88;;;;;;;;;;5100236;28;20293;-55
2022/01/14 07:00:36;;;;;;;49.00;24.48;;;;;;;;;;5099072;28;20406;-54
2022/01/14 07:03:02;;;;;;;52.25;24.50;;;;;;;;;;5090217;28;20106;-55
2022/01/14 07:05:28;;;;;;;47.58;23.23;;;;;;;;;;5105829;28;20024;-55
2022/01/14 07:07:55;;;;;;;46.58;23.60;;;;;;;;;;5107981;28;20582;-55
2022/01/14 07:10:22;;;;;;;49.55;24.33;;;;;;;;;;5090252;28;20027;-55
2022/01/14 07:12:48;;;;;;;49.38;24.75;;;;;;;;;;5095511;28;20034;-56
2022/01/14 07:15:15;;;;;;;50.50;25.25;;;;;;;;;;5074932;28;20020;-53
2022/01/14 07:17:42;;;;;;;53.22;25.92;;;;;;;;;;5085961;28;20093;-55
2022/01/14 07:20:12;;;;;;;58.55;27.73;;;;;;;;;;5087245;28;20376;-54
2022/01/14 07:22:39;;;;;;;51.00;26.30;;;;;;;;;;5092822;28;20027;-54
2022/01/14 07:25:05;;;;;;;52.67;24.88;;;;;;;;;;5108296;28;20028;-56
2022/01/14 07:27:32;;;;;;;49.60;24.75;;;;;;;;;;5100782;28;20089;-55
2022/01/14 07:29:59;;;;;;;50.08;25.35;;;;;;;;;;5087354;28;20768;-56
2022/01/14 07:32:25;;;;;;;55.83;25.83;;;;;;;;;;5086883;28;20044;-55
2022/01/14 07:34:51;;;;;;;55.47;26.05;;;;;;;;;;5087110;28;20035;-55
2022/01/14 07:37:18;;;;;;;52.08;25.08;;;;;;;;;;5104133;28;20444;-55
2022/01/14 07:39:44;;;;;;;50.25;23.45;;;;;;;;;;5104538;28;20027;-55
2022/01/14 07:42:10;;;;;;;50.08;24.60;;;;;;;;;;5086500;28;20471;-55
2022/01/14 07:44:38;;;;;;;45.97;22.40;;;;;;;;;;5087075;28;20088;-55
2022/01/14 07:47:04;;;;;;;45.60;21.75;;;;;;;;;;5087094;28;20040;-55
2022/01/14 07:49:30;;;;;;;47.63;22.98;;;;;;;;;;5086362;28;20076;-56
2022/01/14 07:51:57;;;;;;;47.83;23.35;;;;;;;;;;5082730;28;20487;-54
2022/01/14 07:54:23;;;;;;;48.85;23.40;;;;;;;;;;5090641;28;20027;-54
2022/01/14 07:56:51;;;;;;;46.47;22.02;;;;;;;;;;5082714;28;20043;-54
2022/01/14 07:59:18;;;;;;;50.85;23.70;;;;;;;;;;5085492;28;20560;-54
2022/01/14 08:01:45;;;;;;;49.17;23.33;;;;;;;;;;5086471;28;20073;-55
2022/01/14 08:04:13;;;;;;;48.95;23.70;;;;;;;;;;5097752;28;20032;-56
2022/01/14 08:06:45;;;;;;;53.20;26.80;;;;;;;;;;5089370;28;20047;-55
2022/01/14 08:09:12;;;;;;;51.85;25.33;;;;;;;;;;5070514;28;20124;-54
2022/01/14 08:11:38;;;;;;;56.67;26.48;;;;;;;;;;5070068;28;20035;-55
2022/01/14 08:14:04;;;;;;;51.55;25.35;;;;;;;;;;5085840;28;20024;-56
2022/01/14 08:16:30;;;;;;;49.67;24.30;;;;;;;;;;5078585;28;20081;-54
2022/01/14 08:18:56;;;;;;;46.92;23.13;;;;;;;;;;5067726;28;20383;-56
2022/01/14 08:21:22;;;;;;;51.40;23.60;;;;;;;;;;5087164;28;20032;-54
2022/01/14 08:23:48;;;;;;;48.13;24.05;;;;;;;;;;5092754;28;20396;-54
2022/01/14 08:26:15;;;;;;;49.03;24.42;;;;;;;;;;5084117;28;20028;-51
2022/01/14 08:28:41;;;;;;;53.67;26.90;;;;;;;;;;5086584;28;20080;-54
2022/01/14 08:31:08;;;;;;;55.10;27.63;;;;;;;;;;5080823;28;20028;-54
2022/01/14 08:33:35;;;;;;;56.08;27.40;;;;;;;;;;5085944;28;20132;-55
2022/01/14 08:36:01;;;;;;;56.05;26.75;;;;;;;;;;5082299;28;20024;-53
2022/01/14 08:38:28;;;;;;;54.00;27.85;;;;;;;;;;5079092;28;20020;-55
2022/01/14 08:40:55;;;;;;;56.55;27.77;;;;;;;;;;5086185;28;20059;-54
2022/01/14 08:43:21;;;;;;;64.10;31.23;;;;;;;;;;5090959;28;20024;-52
2022/01/14 08:45:48;;;;;;;65.78;32.47;;;;;;;;;;5086010;28;20103;-51
2022/01/14 08:48:15;;;;;;;63.58;31.63;;;;;;;;;;5085362;28;20028;-54
2022/01/14 08:50:41;;;;;;;58.75;29.55;;;;;;;;;;5085724;28;20173;-53
2022/01/14 08:53:08;;;;;;;59.90;30.00;;;;;;;;;;5093774;28;20468;-54
2022/01/14 08:55:35;;;;;;;56.58;28.90;;;;;;;;;;5106990;28;20032;-55
2022/01/14 08:58:01;;;;;;;56.67;28.73;;;;;;;;;;5085655;28;20040;-54
2022/01/14 09:00:27;;;;;;;54.80;28.38;;;;;;;;;;5085777;28;20031;-52
2022/01/14 09:02:55;;;;;;;56.05;28.00;;;;;;;;;;5080558;28;20040;-51
2022/01/14 09:05:21;;;;;;;60.28;29.10;;;;;;;;;;5083722;28;20036;-54
2022/01/14 09:07:47;;;;;;;62.25;31.38;;;;;;;;;;5078736;28;20033;-51
2022/01/14 09:10:15;;;;;;;59.08;30.50;;;;;;;;;;5091984;28;20061;-54
2022/01/14 09:12:41;;;;;;;57.65;29.67;;;;;;;;;;5095650;28;20517;-51
2022/01/14 09:15:07;;;;;;;57.97;29.02;;;;;;;;;;5080440;28;20415;-54
2022/01/14 09:17:34;;;;;;;56.53;29.42;;;;;;;;;;5085946;28;20141;-53
2022/01/14 09:20:03;;;;;;;52.47;27.10;;;;;;;;;;5086002;28;20494;-54
2022/01/14 09:22:30;;;;;;;53.25;26.90;;;;;;;;;;5088222;28;20016;-52
2022/01/14 09:24:57;;;;;;;50.70;24.90;;;;;;;;;;5085729;28;20111;-53
2022/01/14 09:27:24;;;;;;;44.03;22.65;;;;;;;;;;5085916;28;20580;-53
2022/01/14 09:29:50;;;;;;;42.83;22.20;;;;;;;;;;5081987;28;20051;-53
2022/01/14 09:32:17;;;;;;;41.20;21.42;;;;;;;;;;5095491;28;20028;-52
2022/01/14 09:34:43;;;;;;;40.60;20.75;;;;;;;;;;5085427;28;20074;-53
2022/01/14 09:37:09;;;;;;;37.88;20.75;;;;;;;;;;5084647;28;20028;-54
2022/01/14 09:39:36;;;;;;;40.63;20.20;;;;;;;;;;5085324;28;20130;-52
2022/01/14 09:42:04;;;;;;;39.72;19.77;;;;;;;;;;5085947;28;20028;-51
2022/01/14 09:44:31;;;;;;;38.42;20.40;;;;;;;;;;5101293;28;20122;-51
2022/01/14 09:46:57;;;;;;;39.22;19.95;;;;;;;;;;5084270;28;20131;-51
2022/01/14 09:49:23;;;;;;;39.83;20.15;;;;;;;;;;5086222;28;20513;-53
2022/01/14 09:51:49;;;;;;;42.85;21.23;;;;;;;;;;5094129;28;20024;-55
2022/01/14 09:54:15;;;;;;;47.15;23.13;;;;;;;;;;5104711;28;20552;-51
2022/01/14 09:56:45;;;;;;;43.53;21.77;;;;;;;;;;5107168;28;20031;-51
2022/01/14 09:59:12;;;;;;;39.10;20.58;;;;;;;;;;5070316;28;20477;-51
2022/01/14 10:01:41;;;;;;;46.50;23.23;;;;;;;;;;5070541;28;20115;-50
2022/01/14 10:04:12;;;;;;;49.47;23.30;;;;;;;;;;5094716;28;20031;-51
2022/01/14 10:06:51;;;;;;;40.72;21.58;;;;;;;;;;5102215;28;20024;-52
2022/01/14 10:09:22;;;;;;;42.45;22.00;;;;;;;;;;5079292;28;20046;-50
2022/01/14 10:12:04;;;;;;;44.65;22.10;;;;;;;;;;5093494;28;20103;-51
2022/01/14 10:14:30;;;;;;;42.45;20.65;;;;;;;;;;5090461;28;20035;-51
2022/01/14 10:16:57;;;;;;;46.28;22.67;;;;;;;;;;5089011;28;20028;-50
2022/01/14 10:19:31;;;;;;;44.70;21.38;;;;;;;;;;5069858;28;20496;-53
2022/01/14 10:21:57;;;;;;;39.03;18.90;;;;;;;;;;5096273;28;20114;-49
2022/01/14 10:24:25;;;;;;;37.40;18.63;;;;;;;;;;5086952;28;20124;-48
2022/01/14 10:26:53;;;;;;;37.88;18.92;;;;;;;;;;5087631;28;20440;-48
2022/01/14 10:29:31;;;;;;;38.17;19.75;;;;;;;;;;5093219;28;20031;-51
2022/01/14 10:31:57;;;;;;;39.90;19.35;;;;;;;;;;5091026;28;20031;-51
2022/01/14 10:34:23;;;;;;;37.38;18.92;;;;;;;;;;5092517;28;20717;-48
2022/01/14 10:36:50;;;;;;;40.10;19.83;;;;;;;;;;5086913;28;20032;-50
2022/01/14 10:39:22;;;;;;;40.15;20.67;;;;;;;;;;5087989;28;20164;-50
2022/01/14 10:41:49;;;;;;;46.28;21.50;;;;;;;;;;5106914;28;20072;-52
2022/01/14 10:44:28;;;;;;;40.63;20.52;;;;;;;;;;5095522;28;20034;-50
2022/01/14 10:47:14;;;;;;;40.58;20.35;;;;;;;;;;5082362;28;20035;-50
2022/01/14 10:49:40;;;;;;;41.35;21.27;;;;;;;;;;5079598;28;20043;-49
2022/01/14 10:52:23;;;;;;;41.03;21.05;;;;;;;;;;5087389;28;20024;-48
2022/01/14 10:54:54;;;;;;;40.38;20.15;;;;;;;;;;5086887;28;20402;-49
2022/01/14 10:57:22;;;;;;;37.90;19.52;;;;;;;;;;5088371;28;20028;-54
2022/01/14 10:59:49;;;;;;;38.85;19.30;;;;;;;;;;5087226;28;20437;-50
2022/01/14 11:02:31;;;;;;;40.65;20.67;;;;;;;;;;5086715;28;20035;-51
2022/01/14 11:05:07;;;;;;;41.13;20.92;;;;;;;;;;5069698;28;20388;-50
2022/01/14 11:07:33;;;;;;;41.08;19.85;;;;;;;;;;5092237;28;20028;-51
2022/01/14 11:10:00;;;;;;;41.88;21.58;;;;;;;;;;5086732;28;20462;-51
2022/01/14 11:12:29;;;;;;;42.60;20.77;;;;;;;;;;5086091;28;20044;-50
2022/01/14 11:14:55;;;;;;;42.03;21.25;;;;;;;;;;5089101;28;20062;-50
2022/01/14 11:17:21;;;;;;;45.67;22.42;;;;;;;;;;5103559;28;20024;-52
2022/01/14 11:19:48;;;;;;;47.22;22.00;;;;;;;;;;5092939;28;20039;-53
2022/01/14 11:25:00;;;;;;;43.92;22.13;;;;;;;;;;5089840;28;20096;-51
2022/01/14 11:27:27;;;;;;;43.38;21.38;;;;;;;;;;5101036;28;20024;-50
2022/01/14 11:29:58;;;;;;;43.63;22.45;;;;;;;;;;5087008;28;20761;-50
2022/01/14 11:32:27;;;;;;;41.05;20.98;;;;;;;;;;5092632;28;20020;-50
2022/01/14 11:34:53;;;;;;;43.20;21.50;;;;;;;;;;5092921;28;20111;-52
2022/01/14 11:37:28;;;;;;;45.75;22.70;;;;;;;;;;5087693;28;20499;-52
2022/01/14 11:39:55;;;;;;;43.38;22.33;;;;;;;;;;5095684;28;20031;-52
2022/01/14 11:42:38;;;;;;;46.42;23.00;;;;;;;;;;5086720;28;20422;-52
2022/01/14 11:45:06;;;;;;;42.10;21.60;;;;;;;;;;5086322;28;20658;-54
2022/01/14 11:47:44;;;;;;;50.90;24.52;;;;;;;;;;5087886;28;20784;-52
2022/01/14 11:50:19;;;;;;;48.15;24.42;;;;;;;;;;5087279;28;20059;-54
2022/01/14 11:52:45;;;;;;;45.55;23.33;;;;;;;;;;5087618;28;20446;-53
2022/01/14 11:55:23;;;;;;;52.10;24.60;;;;;;;;;;5087273;28;20387;-52
2022/01/14 11:57:56;;;;;;;46.95;24.20;;;;;;;;;;5087309;28;20020;-53
2022/01/14 12:00:31;;;;;;;49.25;24.85;;;;;;;;;;5087504;28;20024;-53
2022/01/14 12:02:58;;;;;;;47.03;23.65;;;;;;;;;;5087578;28;20032;-54
2022/01/14 12:05:25;;;;;;;51.50;25.13;;;;;;;;;;5087280;28;20028;-54
2022/01/14 12:08:12;;;;;;;45.80;22.83;;;;;;;;;;5086245;28;20040;-53
2022/01/14 12:10:40;;;;;;;46.83;22.98;;;;;;;;;;5069090;28;20054;-53
2022/01/14 12:15:59;;;;;;;45.83;23.58;;;;;;;;;;5086616;28;20032;-52
2022/01/14 12:18:44;;;;;;;47.60;24.65;;;;;;;;;;5093908;28;20532;-51
2022/01/14 12:21:10;;;;;;;47.35;25.05;;;;;;;;;;5066783;28;20025;-54
2022/01/14 12:23:36;;;;;;;49.15;23.77;;;;;;;;;;5067349;28;20027;-52
2022/01/14 12:26:13;;;;;;;44.50;23.05;;;;;;;;;;5066917;28;20090;-54
2022/01/14 12:28:39;;;;;;;42.97;22.20;;;;;;;;;;5063780;28;20099;-52
2022/01/14 12:31:05;;;;;;;39.55;21.00;;;;;;;;;;5101016;28;20031;-52
2022/01/14 12:33:51;;;;;;;41.10;21.05;;;;;;;;;;5089793;28;20047;-50
2022/01/14 12:36:19;;;;;;;37.00;19.08;;;;;;;;;;5068305;28;20036;-51
2022/01/14 12:38:46;;;;;;;38.17;20.70;;;;;;;;;;5088964;28;20026;-51
2022/01/14 12:41:29;;;;;;;38.65;20.52;;;;;;;;;;5085269;28;20116;-50
2022/01/14 12:43:57;;;;;;;38.67;20.73;;;;;;;;;;5085042;28;20491;-51
2022/01/14 12:47:12;;;;;;;37.45;19.80;;;;;;;;;;5082416;28;20036;-50
2022/01/14 12:49:22;;;;;;;36.72;19.80;;;;;;;;;;5068824;28;20058;-50
2022/01/14 12:52:00;;;;;;;37.50;19.92;;;;;;;;;;5082293;28;20032;-52
2022/01/14 12:54:29;;;;;;;39.97;21.77;;;;;;;;;;5067662;28;20025;-49
2022/01/14 12:56:57;;;;;;;37.03;19.90;;;;;;;;;;5081006;28;20120;-50
2022/01/14 12:59:24;;;;;;;37.67;19.50;;;;;;;;;;5068419;28;20039;-52
2022/01/14 13:01:51;;;;;;;37.00;19.77;;;;;;;;;;5086787;28;20023;-50
2022/01/14 13:04:18;;;;;;;33.47;17.88;;;;;;;;;;5089751;28;20028;-49
2022/01/14 13:06:47;;;;;;;34.42;18.67;;;;;;;;;;5086006;28;20036;-51
2022/01/14 13:09:18;;;;;;;34.55;18.80;;;;;;;;;;5086362;28;20131;-50
2022/01/14 13:11:57;;;;;;;34.63;19.02;;;;;;;;;;5077919;28;20123;-52
2022/01/14 13:14:29;;;;;;;35.03;18.95;;;;;;;;;;5082448;28;20503;-53
2022/01/14 13:16:56;;;;;;;35.70;19.58;;;;;;;;;;5085545;28;20491;-51
2022/01/14 13:19:23;;;;;;;33.45;18.98;;;;;;;;;;5085380;28;20027;-51
2022/01/14 13:21:49;;;;;;;37.10;19.48;;;;;;;;;;5085442;28;20510;-51
2022/01/14 13:24:19;;;;;;;34.83;19.30;;;;;;;;;;5085343;28;20028;-54
2022/01/14 13:26:45;;;;;;;34.65;19.20;;;;;;;;;;5085016;28;20119;-50
2022/01/14 13:29:11;;;;;;;39.90;20.60;;;;;;;;;;5102529;28;20506;-51
2022/01/14 13:31:37;;;;;;;35.08;19.02;;;;;;;;;;5094345;28;20028;-50
2022/01/14 13:34:03;;;;;;;37.35;20.33;;;;;;;;;;5090113;28;20761;-54
2022/01/14 13:36:29;;;;;;;35.38;19.52;;;;;;;;;;5089348;28;20059;-55
2022/01/14 13:39:11;;;;;;;34.50;19.65;;;;;;;;;;5089462;28;20503;-55
2022/01/14 13:41:41;;;;;;;38.85;20.42;;;;;;;;;;5107075;28;20089;-56
2022/01/14 13:44:19;;;;;;;37.85;20.10;;;;;;;;;;5090731;28;20043;-55
2022/01/14 13:46:53;;;;;;;36.03;19.92;;;;;;;;;;5094592;28;20576;-55
2022/01/14 13:49:21;;;;;;;41.38;21.83;;;;;;;;;;5090113;28;20074;-54
2022/01/14 13:52:03;;;;;;;38.20;20.95;;;;;;;;;;5090283;28;20024;-56
2022/01/14 13:54:30;;;;;;;38.35;20.52;;;;;;;;;;5092199;28;20031;-55
2022/01/14 13:56:56;;;;;;;39.22;21.15;;;;;;;;;;5071980;28;20024;-55
2022/01/14 13:59:22;;;;;;;39.53;20.52;;;;;;;;;;5077847;28;20035;-55
2022/01/14 14:01:53;;;;;;;38.72;20.73;;;;;;;;;;5069570;28;20109;-55
2022/01/14 14:04:26;;;;;;;41.05;21.48;;;;;;;;;;5084552;28;20040;-54
2022/01/14 14:07:04;;;;;;;43.42;23.05;;;;;;;;;;5089927;28;20016;-55
2022/01/14 14:09:37;;;;;;;44.28;23.00;;;;;;;;;;5090759;28;20027;-54
2022/01/14 14:18:07;;;;;;;51.22;25.77;;;;;;;;;;5082298;28;20093;-51
2022/01/14 14:20:33;;;;;;;48.47;24.45;;;;;;;;;;5089722;28;20055;-53
2022/01/14 14:23:13;;;;;;;46.28;23.98;;;;;;;;;;5090147;28;20115;-54
2022/01/14 14:25:40;;;;;;;48.28;24.85;;;;;;;;;;5089398;28;20748;-54
2022/01/14 14:28:09;;;;;;;47.40;24.27;;;;;;;;;;5087173;28;20081;-54
2022/01/14 14:30:37;;;;;;;42.55;23.08;;;;;;;;;;5082501;28;20019;-55
2022/01/14 14:33:05;;;;;;;45.83;23.27;;;;;;;;;;5088787;28;20590;-54
2022/01/14 14:35:35;;;;;;;42.25;22.80;;;;;;;;;;5088939;28;20081;-55
2022/01/14 14:38:02;;;;;;;41.90;22.40;;;;;;;;;;5086880;28;20036;-55
2022/01/14 14:40:31;;;;;;;43.33;22.90;;;;;;;;;;5085153;28;20032;-56
2022/01/14 14:42:59;;;;;;;40.22;21.73;;;;;;;;;;5087346;28;20027;-55
2022/01/14 14:45:26;;;;;;;39.40;21.58;;;;;;;;;;5088681;28;20142;-53
2022/01/14 14:47:52;;;;;;;35.25;20.67;;;;;;;;;;5086560;28;20028;-54
2022/01/14 14:50:20;;;;;;;38.67;21.63;;;;;;;;;;5087501;28;20103;-55
2022/01/14 14:52:46;;;;;;;36.60;20.52;;;;;;;;;;5069856;28;20020;-55
2022/01/14 14:55:12;;;;;;;37.50;20.63;;;;;;;;;;5068767;28;20028;-55
2022/01/14 14:57:41;;;;;;;32.70;19.10;;;;;;;;;;5086098;28;20023;-55
2022/01/14 15:00:09;;;;;;;33.35;19.23;;;;;;;;;;5086371;28;20032;-55
2022/01/14 15:02:35;;;;;;;34.28;19.77;;;;;;;;;;5068425;28;20032;-53
2022/01/14 15:05:01;;;;;;;30.75;17.60;;;;;;;;;;5082250;28;20073;-55